Time;durP1;ratioP1;P1;durP2;ratioP2;P2;SDS_P1;SDS_P2;PMS_P1;PMS_P2;Temp;Humidity;BMP_temperature;BMP_pressure;BME280_temperature;BME280_humidity;BME280_pressure;Samples;Min_cycle;Max_cycle;Signal;HPM_P1;HPM_P2
2023/04/01 00:00:17;;;;;;;10.63;10.33;;;9.10;99.90;;;;;;5006922;28;20295;-83
2023/04/01 00:02:46;;;;;;;10.53;10.23;;;9.10;99.90;;;;;;5005110;28;20237;-82
2023/04/01 00:05:17;;;;;;;10.47;10.17;;;9.20;99.90;;;;;;5005364;28;20327;-83
2023/04/01 00:07:46;;;;;;;10.13;9.83;;;9.20;99.90;;;;;;5005460;28;20249;-82
2023/04/01 00:10:15;;;;;;;10.43;10.13;;;9.20;99.90;;;;;;5009337;28;20296;-83
2023/04/01 00:12:45;;;;;;;10.40;10.10;;;9.20;99.90;;;;;;5019146;28;20240;-82
2023/04/01 00:15:13;;;;;;;10.50;10.20;;;9.30;99.90;;;;;;5011629;28;20293;-83
2023/04/01 00:17:43;;;;;;;10.50;10.20;;;9.30;99.90;;;;;;5009590;28;20927;-82
2023/04/01 00:20:14;;;;;;;10.57;10.27;;;9.30;99.90;;;;;;5008766;28;20323;-82
2023/04/01 00:22:42;;;;;;;10.43;10.13;;;9.30;99.90;;;;;;5009392;28;20237;-82
2023/04/01 00:25:20;;;;;;;10.53;10.23;;;9.30;99.90;;;;;;5007056;28;20244;-82
2023/04/01 00:27:50;;;;;;;10.50;10.20;;;9.30;99.90;;;;;;5006250;28;20224;-82
2023/04/01 00:30:19;;;;;;;10.40;10.10;;;9.30;99.90;;;;;;5005984;28;20271;-82
2023/04/01 00:32:49;;;;;;;10.63;10.33;;;9.30;99.90;;;;;;5005615;28;20320;-82
2023/04/01 00:35:19;;;;;;;10.80;10.50;;;9.40;99.90;;;;;;5005517;28;20281;-82
2023/04/01 00:37:49;;;;;;;10.50;10.20;;;9.40;99.90;;;;;;5005920;28;20308;-82
2023/04/01 00:40:29;;;;;;;10.53;10.23;;;9.40;99.90;;;;;;5005651;28;20232;-82
2023/04/01 00:42:57;;;;;;;10.63;10.33;;;9.40;99.90;;;;;;5009230;28;20251;-82
2023/04/01 00:45:39;;;;;;;10.80;10.50;;;9.40;99.90;;;;;;5009618;28;20247;-82
2023/04/01 00:48:12;;;;;;;10.90;10.60;;;9.40;99.90;;;;;;5008202;28;20236;-83
2023/04/01 00:50:42;;;;;;;10.80;10.50;;;9.40;99.90;;;;;;5008233;28;20242;-82
2023/04/01 00:53:11;;;;;;;10.87;10.57;;;9.40;99.90;;;;;;5006485;28;20240;-82
2023/04/01 00:55:49;;;;;;;10.93;10.63;;;9.40;99.90;;;;;;5006997;28;20225;-82
2023/04/01 00:58:20;;;;;;;10.93;10.63;;;9.40;99.90;;;;;;5006641;28;20225;-83
2023/04/01 01:00:50;;;;;;;10.80;10.50;;;9.40;99.90;;;;;;5009308;28;20236;-82
2023/04/01 01:03:18;;;;;;;10.90;10.60;;;9.40;99.90;;;;;;5011955;28;20231;-82
2023/04/01 01:06:21;;;;;;;10.70;10.40;;;9.40;99.90;;;;;;5020340;28;20255;-81
2023/04/01 01:09:11;;;;;;;11.00;10.70;;;9.40;99.90;;;;;;5020942;28;20225;-83
2023/04/01 01:11:47;;;;;;;10.70;10.40;;;9.40;99.90;;;;;;5020384;28;20248;-81
2023/04/01 01:14:32;;;;;;;10.77;10.47;;;9.40;99.90;;;;;;5020164;28;20252;-82
2023/04/01 01:17:11;;;;;;;10.57;10.27;;;9.30;99.90;;;;;;5018227;28;20233;-82
2023/04/01 01:20:12;;;;;;;10.60;10.30;;;9.30;99.90;;;;;;5019893;28;20224;-82
2023/04/01 01:23:11;;;;;;;10.60;10.30;;;9.30;99.90;;;;;;5020866;28;20228;-81
2023/04/01 01:25:50;;;;;;;10.57;10.27;;;9.30;99.90;;;;;;5018339;28;20272;-81
2023/04/01 01:28:37;;;;;;;10.60;10.30;;;9.30;99.90;;;;;;5019677;28;20217;-81
2023/04/01 01:31:16;;;;;;;10.53;10.23;;;9.30;99.90;;;;;;5021252;28;20280;-81
2023/04/01 01:34:03;;;;;;;10.83;10.53;;;9.30;99.90;;;;;;5020787;28;20280;-81
2023/04/01 01:36:35;;;;;;;10.70;10.40;;;9.30;99.90;;;;;;5020516;28;20224;-80
2023/04/01 01:39:04;;;;;;;10.73;10.43;;;9.30;99.90;;;;;;5020498;28;20232;-81
2023/04/01 01:41:35;;;;;;;10.67;10.37;;;9.30;99.90;;;;;;5020385;28;20261;-81
2023/04/01 01:44:07;;;;;;;10.70;10.40;;;9.30;99.90;;;;;;5020401;28;20225;-80
2023/04/01 01:46:40;;;;;;;10.60;10.30;;;9.30;99.90;;;;;;5019457;28;20243;-82
2023/04/01 01:49:10;;;;;;;10.80;10.50;;;9.30;99.90;;;;;;5012888;28;20244;-81
2023/04/01 01:51:42;;;;;;;10.50;10.20;;;9.30;99.90;;;;;;5010128;28;20237;-81
2023/04/01 01:54:19;;;;;;;10.80;10.50;;;9.30;99.90;;;;;;5007458;28;20716;-81
2023/04/01 01:56:49;;;;;;;10.60;10.30;;;9.30;99.90;;;;;;5004989;28;20240;-81
2023/04/01 01:59:19;;;;;;;10.57;10.27;;;9.30;99.90;;;;;;5005660;28;20243;-83
2023/04/01 02:01:55;;;;;;;10.73;10.43;;;9.30;99.90;;;;;;5005906;28;20269;-83
2023/04/01 02:04:25;;;;;;;10.90;10.60;;;9.30;99.90;;;;;;5004892;28;20235;-81
2023/04/01 02:07:02;;;;;;;11.03;10.73;;;9.30;99.90;;;;;;5003522;28;20235;-81
2023/04/01 02:09:34;;;;;;;11.00;10.70;;;9.30;99.90;;;;;;5004105;28;20288;-81
2023/04/01 02:12:07;;;;;;;11.00;10.70;;;9.30;99.90;;;;;;5003805;28;20313;-81
2023/04/01 02:14:50;;;;;;;10.80;10.50;;;9.30;99.90;;;;;;5003883;28;20264;-81
2023/04/01 02:17:20;;;;;;;10.70;10.40;;;9.30;99.90;;;;;;5003623;28;20257;-82
2023/04/01 02:19:56;;;;;;;10.93;10.63;;;9.30;99.90;;;;;;5003033;28;20217;-81
2023/04/01 02:22:33;;;;;;;10.70;10.40;;;9.30;99.90;;;;;;5003305;28;20264;-82
2023/04/01 02:25:06;;;;;;;10.73;10.43;;;9.30;99.90;;;;;;5003356;28;20239;-82
2023/04/01 02:27:34;;;;;;;10.97;10.67;;;9.30;99.90;;;;;;5002727;28;20237;-81
2023/04/01 02:30:02;;;;;;;10.40;10.10;;;9.30;99.90;;;;;;5003052;28;20251;-81
2023/04/01 02:32:32;;;;;;;10.73;10.43;;;9.30;99.90;;;;;;5015854;28;20228;-81
2023/04/01 02:35:05;;;;;;;10.70;10.40;;;9.30;99.90;;;;;;5011722;28;20248;-81
2023/04/01 02:37:34;;;;;;;10.57;10.27;;;9.30;99.90;;;;;;5008145;28;20264;-81
2023/04/01 02:40:03;;;;;;;10.97;10.67;;;9.30;99.90;;;;;;5007149;28;20327;-81
2023/04/01 02:42:30;;;;;;;10.97;10.67;;;9.30;99.90;;;;;;5010250;28;20223;-82
2023/04/01 02:44:59;;;;;;;10.70;10.40;;;9.30;99.90;;;;;;5007568;28;20236;-82
2023/04/01 02:47:27;;;;;;;10.80;10.50;;;9.30;99.90;;;;;;5006593;28;20232;-81
2023/04/01 02:49:59;;;;;;;10.87;10.57;;;9.30;99.90;;;;;;5004961;28;20387;-81
2023/04/01 02:52:28;;;;;;;10.80;10.50;;;9.30;99.90;;;;;;5004697;28;20381;-82
2023/04/01 02:55:06;;;;;;;10.80;10.50;;;9.30;99.90;;;;;;5004917;28;20247;-81
2023/04/01 02:57:36;;;;;;;10.73;10.43;;;9.30;99.90;;;;;;5003946;28;20233;-81
2023/04/01 03:00:10;;;;;;;11.10;10.80;;;9.30;99.90;;;;;;5003601;28;21080;-81
2023/04/01 03:02:44;;;;;;;10.97;10.67;;;9.30;99.90;;;;;;5004140;28;20385;-82
2023/04/01 03:05:12;;;;;;;10.73;10.43;;;9.30;99.90;;;;;;5003398;28;20233;-81
2023/04/01 03:07:42;;;;;;;10.60;10.30;;;9.30;99.90;;;;;;5004847;28;20253;-82
2023/04/01 03:10:15;;;;;;;10.80;10.50;;;9.30;99.90;;;;;;5004810;28;20277;-81
2023/04/01 03:12:42;;;;;;;11.00;10.70;;;9.30;99.90;;;;;;5004041;28;20239;-81
2023/04/01 03:15:14;;;;;;;10.70;10.40;;;9.30;99.90;;;;;;5003416;28;20337;-82
2023/04/01 03:17:42;;;;;;;10.70;10.40;;;9.30;99.90;;;;;;5005599;28;20247;-82
2023/04/01 03:20:11;;;;;;;10.80;10.50;;;9.30;99.90;;;;;;5006731;28;20225;-82
2023/04/01 03:22:39;;;;;;;10.87;10.57;;;9.30;99.90;;;;;;5006276;28;20240;-82
2023/04/01 03:25:10;;;;;;;11.00;10.70;;;9.30;99.90;;;;;;5006755;28;20241;-82
2023/04/01 03:27:38;;;;;;;11.00;10.70;;;9.20;99.90;;;;;;5006866;28;20271;-82
2023/04/01 03:30:07;;;;;;;10.97;10.67;;;9.20;99.90;;;;;;5007042;28;20615;-81
2023/04/01 03:32:36;;;;;;;11.00;10.70;;;9.20;99.90;;;;;;5007334;28;20239;-82
2023/04/01 03:35:06;;;;;;;11.30;10.97;;;9.20;99.90;;;;;;5006473;28;20253;-82
2023/04/01 03:37:36;;;;;;;11.20;10.90;;;9.20;99.90;;;;;;5006258;28;20271;-82
2023/04/01 03:40:06;;;;;;;11.00;10.70;;;9.20;99.90;;;;;;5006523;28;20259;-81
2023/04/01 03:42:37;;;;;;;10.97;10.67;;;9.20;99.90;;;;;;5006085;28;20225;-81
2023/04/01 03:45:05;;;;;;;11.10;10.80;;;9.20;99.90;;;;;;5006022;28;20241;-82
2023/04/01 03:47:33;;;;;;;10.80;10.50;;;9.20;99.90;;;;;;5006049;28;20275;-82
2023/04/01 03:50:02;;;;;;;11.13;10.83;;;9.30;99.90;;;;;;5006213;28;20316;-82
2023/04/01 03:52:31;;;;;;;10.93;10.63;;;9.30;99.90;;;;;;5005545;28;20231;-82
2023/04/01 03:55:01;;;;;;;10.70;10.40;;;9.20;99.90;;;;;;5005197;28;20240;-81
2023/04/01 03:57:31;;;;;;;11.03;10.73;;;9.20;99.90;;;;;;5004949;28;20296;-82
2023/04/01 04:00:02;;;;;;;10.70;10.40;;;9.30;99.90;;;;;;5005046;28;20225;-82
2023/04/01 04:02:31;;;;;;;10.80;10.50;;;9.30;99.90;;;;;;5005642;28;20224;-82
2023/04/01 04:05:01;;;;;;;10.80;10.50;;;9.20;99.90;;;;;;5005248;28;20297;-82
2023/04/01 04:07:31;;;;;;;10.80;10.50;;;9.20;99.90;;;;;;5004154;28;20236;-82
2023/04/01 04:10:00;;;;;;;10.80;10.50;;;9.20;99.90;;;;;;5007359;28;20319;-81
2023/04/01 04:12:27;;;;;;;10.70;10.40;;;9.20;99.90;;;;;;5022065;28;20243;-81
2023/04/01 04:14:58;;;;;;;10.90;10.60;;;9.20;99.90;;;;;;5011017;28;20269;-81
2023/04/01 04:17:29;;;;;;;11.00;10.70;;;9.20;99.90;;;;;;5001980;28;20291;-82
2023/04/01 04:19:58;;;;;;;11.17;10.87;;;9.20;99.90;;;;;;5002221;28;20239;-82
2023/04/01 04:22:27;;;;;;;11.00;10.70;;;9.20;99.90;;;;;;5002641;28;20233;-82
2023/04/01 04:24:57;;;;;;;11.00;10.70;;;9.20;99.90;;;;;;5005321;28;20255;-82
2023/04/01 04:27:26;;;;;;;10.93;10.63;;;9.20;99.90;;;;;;5007205;28;20232;-82
2023/04/01 04:29:56;;;;;;;11.00;10.70;;;9.20;99.90;;;;;;5005104;28;20267;-81
2023/04/01 04:32:24;;;;;;;11.10;10.80;;;9.20;99.90;;;;;;5013812;28;20219;-81
2023/04/01 04:34:59;;;;;;;10.83;10.53;;;9.20;99.90;;;;;;5009846;28;20296;-82
2023/04/01 04:37:27;;;;;;;10.80;10.50;;;9.20;99.90;;;;;;5003647;28;20332;-82
2023/04/01 04:39:55;;;;;;;10.80;10.50;;;9.20;99.90;;;;;;5004337;28;20316;-82
2023/04/01 04:42:22;;;;;;;10.80;10.50;;;9.20;99.90;;;;;;5003576;28;20272;-82
2023/04/01 04:44:53;;;;;;;10.93;10.63;;;9.20;99.90;;;;;;5004068;28;20243;-82
2023/04/01 04:47:22;;;;;;;10.90;10.60;;;9.10;99.90;;;;;;5004253;28;20235;-82
2023/04/01 04:49:52;;;;;;;11.00;10.70;;;9.10;99.90;;;;;;5006089;28;20217;-82
2023/04/01 04:52:27;;;;;;;10.83;10.53;;;9.10;99.90;;;;;;5015753;28;20216;-81
2023/04/01 04:55:01;;;;;;;11.33;10.93;;;9.00;99.90;;;;;;5013932;28;20300;-82
2023/04/01 04:57:28;;;;;;;11.40;11.00;;;9.00;99.90;;;;;;5008783;28;20275;-82
2023/04/01 04:59:57;;;;;;;11.37;10.97;;;9.00;99.90;;;;;;5007251;28;20340;-82
2023/04/01 05:02:27;;;;;;;11.00;10.70;;;9.00;99.90;;;;;;5006254;28;20232;-82
2023/04/01 05:04:55;;;;;;;11.00;10.70;;;9.00;99.90;;;;;;5005658;28;20232;-82
2023/04/01 05:07:27;;;;;;;11.10;10.80;;;8.90;99.90;;;;;;5005698;28;20300;-82
2023/04/01 05:09:55;;;;;;;11.10;10.80;;;8.90;99.90;;;;;;5005735;28;20225;-82
2023/04/01 05:12:25;;;;;;;11.10;10.80;;;8.90;99.90;;;;;;5005251;28;20232;-81
2023/04/01 05:14:54;;;;;;;11.00;10.70;;;8.90;99.90;;;;;;5006197;28;20260;-82
2023/04/01 05:17:24;;;;;;;11.00;10.70;;;8.90;99.90;;;;;;5005124;28;20240;-82
2023/04/01 05:19:53;;;;;;;10.90;10.60;;;8.90;99.90;;;;;;5004638;28;20241;-82
2023/04/01 05:22:23;;;;;;;10.90;10.60;;;8.90;99.90;;;;;;5005583;28;20252;-83
2023/04/01 05:24:52;;;;;;;10.90;10.60;;;8.90;99.90;;;;;;5004327;28;20244;-82
2023/04/01 05:27:22;;;;;;;10.70;10.40;;;8.80;99.90;;;;;;5003822;28;20240;-82
2023/04/01 05:29:51;;;;;;;11.37;11.00;;;8.80;99.90;;;;;;5004763;28;20292;-82
2023/04/01 05:32:20;;;;;;;10.83;10.53;;;8.80;99.90;;;;;;5003893;28;20233;-82
2023/04/01 05:34:48;;;;;;;11.03;10.73;;;8.80;99.90;;;;;;5003399;28;20235;-81
2023/04/01 05:37:19;;;;;;;10.60;10.30;;;8.80;99.90;;;;;;5004527;28;20236;-82
2023/04/01 05:39:49;;;;;;;10.70;10.40;;;8.80;99.90;;;;;;5004439;28;20263;-82
2023/04/01 05:42:19;;;;;;;10.70;10.40;;;8.90;99.90;;;;;;5006221;28;20312;-82
2023/04/01 05:44:47;;;;;;;10.80;10.50;;;8.90;99.90;;;;;;5004512;28;20233;-82
2023/04/01 05:47:17;;;;;;;10.50;10.20;;;8.80;99.90;;;;;;5006631;28;20343;-82
2023/04/01 05:49:46;;;;;;;10.80;10.50;;;8.90;99.90;;;;;;5004760;28;20236;-82
2023/04/01 05:52:18;;;;;;;10.67;10.37;;;8.90;99.90;;;;;;5005510;28;20229;-81
2023/04/01 05:54:47;;;;;;;10.70;10.40;;;8.90;99.90;;;;;;5005993;28;20239;-82
2023/04/01 05:57:16;;;;;;;10.70;10.40;;;8.90;99.90;;;;;;5006692;28;20292;-82
2023/04/01 05:59:48;;;;;;;10.77;10.47;;;8.90;99.90;;;;;;5006101;28;20237;-82
2023/04/01 06:02:19;;;;;;;10.90;10.60;;;8.90;99.90;;;;;;5007742;28;20232;-81
2023/04/01 06:04:47;;;;;;;11.07;10.77;;;8.90;99.90;;;;;;5006852;28;20240;-82
2023/04/01 06:07:17;;;;;;;11.03;10.73;;;9.00;99.90;;;;;;5005133;28;20304;-82
2023/04/01 06:09:46;;;;;;;11.00;10.70;;;9.00;99.90;;;;;;5005557;28;20249;-82
2023/04/01 06:12:39;;;;;;;11.10;10.80;;;8.90;99.90;;;;;;5006055;28;20443;-82
2023/04/01 06:15:26;;;;;;;10.93;10.63;;;9.00;99.90;;;;;;5010194;28;20252;-83
2023/04/01 06:19:00;;;;;;;10.83;10.53;;;9.00;99.90;;;;;;5010108;28;20236;-82
2023/04/01 06:22:30;;;;;;;10.50;10.20;;;9.00;99.90;;;;;;5014039;28;20248;-82
2023/04/01 06:25:41;;;;;;;11.13;10.83;;;9.10;99.90;;;;;;4970216;28;20309;-83
2023/04/01 06:28:57;;;;;;;10.90;10.60;;;9.10;99.90;;;;;;4943283;29;20238;-83
2023/04/01 06:31:59;;;;;;;10.70;10.40;;;9.10;99.90;;;;;;4989212;28;20244;-83
2023/04/01 06:35:05;;;;;;;10.80;10.50;;;9.10;99.90;;;;;;4988689;28;20281;-83
2023/04/01 06:38:18;;;;;;;10.80;10.50;;;9.20;99.90;;;;;;4994689;28;20289;-83
2023/04/01 06:41:15;;;;;;;10.57;10.27;;;9.30;99.90;;;;;;4992856;28;20236;-82
2023/04/01 06:43:58;;;;;;;10.87;10.57;;;9.30;99.90;;;;;;4990838;28;20942;-82
2023/04/01 06:46:41;;;;;;;11.10;10.80;;;9.40;99.90;;;;;;4990635;28;20249;-83
2023/04/01 06:49:37;;;;;;;10.80;10.50;;;9.40;99.90;;;;;;4989496;28;20245;-83
2023/04/01 06:52:22;;;;;;;10.37;10.07;;;9.50;99.90;;;;;;4993607;28;20328;-82
2023/04/01 06:55:02;;;;;;;10.60;10.30;;;9.50;99.90;;;;;;4993443;28;20260;-83
2023/04/01 06:57:38;;;;;;;10.80;10.50;;;9.50;99.90;;;;;;4998732;28;20252;-84
2023/04/01 07:00:16;;;;;;;10.47;10.17;;;9.60;99.90;;;;;;5013179;28;20228;-83
2023/04/01 07:02:57;;;;;;;10.80;10.50;;;9.60;99.90;;;;;;5012777;28;20247;-83
2023/04/01 07:05:33;;;;;;;10.43;10.13;;;9.60;99.90;;;;;;5013310;28;20241;-83
2023/04/01 07:08:05;;;;;;;10.50;10.20;;;9.70;99.90;;;;;;5013202;28;20228;-84
2023/04/01 07:10:43;;;;;;;10.50;10.20;;;9.70;99.90;;;;;;5018300;28;20224;-83
2023/04/01 07:13:20;;;;;;;10.47;10.17;;;9.80;99.90;;;;;;5023395;28;20259;-83
2023/04/01 07:16:00;;;;;;;10.57;10.27;;;9.80;99.90;;;;;;5019236;28;20247;-83
2023/04/01 07:18:36;;;;;;;10.67;10.37;;;9.80;99.90;;;;;;5014772;28;20233;-84
2023/04/01 07:21:40;;;;;;;10.47;10.17;;;9.90;99.90;;;;;;5014705;28;20324;-84
2023/04/01 07:24:19;;;;;;;10.33;10.03;;;9.90;99.90;;;;;;5014464;28;20275;-83
2023/04/01 07:26:48;;;;;;;10.60;10.30;;;9.90;99.90;;;;;;5012840;28;20339;-84
2023/04/01 07:29:17;;;;;;;10.63;10.33;;;9.90;99.90;;;;;;5015331;28;20240;-84
2023/04/01 07:32:12;;;;;;;10.43;10.13;;;10.00;99.90;;;;;;5013619;28;20323;-85
2023/04/01 07:34:59;;;;;;;10.50;10.20;;;10.00;99.90;;;;;;5011844;28;20240;-84
2023/04/01 07:37:40;;;;;;;10.40;10.10;;;10.10;99.90;;;;;;5011839;28;20635;-84
2023/04/01 07:40:25;;;;;;;10.80;10.50;;;10.10;99.90;;;;;;5012803;28;20224;-84
2023/04/01 07:43:21;;;;;;;10.73;10.43;;;10.10;99.90;;;;;;5011641;28;20287;-84
2023/04/01 07:46:00;;;;;;;10.80;10.50;;;10.10;99.90;;;;;;5013481;28;20232;-83
2023/04/01 07:48:39;;;;;;;10.63;10.33;;;10.20;99.90;;;;;;5011867;28;20331;-83
2023/04/01 07:51:15;;;;;;;10.70;10.40;;;10.20;99.90;;;;;;5014719;28;20260;-84
2023/04/01 07:53:56;;;;;;;10.63;10.33;;;10.20;99.90;;;;;;5013609;28;20319;-84
2023/04/01 07:56:37;;;;;;;10.63;10.33;;;10.30;99.90;;;;;;5013729;28;20244;-85
2023/04/01 07:59:14;;;;;;;10.60;10.30;;;10.40;99.90;;;;;;5013249;28;20232;-83
2023/04/01 08:01:50;;;;;;;10.63;10.33;;;10.50;99.90;;;;;;5009588;28;20283;-85
2023/04/01 08:04:30;;;;;;;10.70;10.40;;;10.50;99.90;;;;;;5010154;28;20272;-83
2023/04/01 08:07:06;;;;;;;10.70;10.40;;;10.50;99.90;;;;;;5009560;28;20297;-82
2023/04/01 08:12:50;;;;;;;10.87;10.57;;;10.50;99.90;;;;;;5008432;28;20433;-85
2023/04/01 08:15:29;;;;;;;10.60;10.30;;;10.60;99.90;;;;;;5007585;28;20253;-83
2023/04/01 08:18:07;;;;;;;10.40;10.10;;;10.60;99.90;;;;;;5008475;28;20228;-83
2023/04/01 08:20:44;;;;;;;10.47;10.17;;;10.70;99.90;;;;;;5008505;28;20235;-84
2023/04/01 08:23:23;;;;;;;10.47;10.17;;;10.60;99.90;;;;;;5008058;28;20240;-84
2023/04/01 08:26:03;;;;;;;10.80;10.50;;;10.70;99.90;;;;;;5008284;28;20247;-84
2023/04/01 08:28:39;;;;;;;10.50;10.20;;;10.70;99.90;;;;;;5008563;28;20252;-84
2023/04/01 08:33:56;;;;;;;10.87;10.57;;;10.70;99.90;;;;;;5003384;28;20233;-85
2023/04/01 08:36:33;;;;;;;10.80;10.50;;;10.80;99.90;;;;;;5006320;28;20224;-82
2023/04/01 08:39:13;;;;;;;11.00;10.70;;;10.70;99.90;;;;;;5005507;28;21042;-85
2023/04/01 08:42:42;;;;;;;10.67;10.37;;;10.70;99.90;;;;;;5007277;28;20241;-85
2023/04/01 08:45:56;;;;;;;10.70;10.40;;;10.70;99.90;;;;;;4978054;28;20296;-84
2023/04/01 08:48:52;;;;;;;10.53;10.23;;;10.80;99.90;;;;;;5012395;28;20247;-84
2023/04/01 08:51:56;;;;;;;10.50;10.20;;;10.80;99.90;;;;;;5012414;28;20240;-83
2023/04/01 08:54:53;;;;;;;10.40;10.10;;;10.70;99.90;;;;;;4998739;28;20244;-83
2023/04/01 08:57:40;;;;;;;10.57;10.27;;;10.70;99.90;;;;;;5005406;28;20236;-86
2023/04/01 09:00:28;;;;;;;10.57;10.27;;;10.70;99.90;;;;;;5009711;28;20244;-83
2023/04/01 09:03:32;;;;;;;10.50;10.20;;;10.70;99.90;;;;;;5007133;28;20252;-85
2023/04/01 09:06:37;;;;;;;10.70;10.40;;;10.80;99.90;;;;;;5006775;28;20240;-84
2023/04/01 09:09:51;;;;;;;10.60;10.30;;;10.80;99.90;;;;;;5008181;28;20229;-84
2023/04/01 09:12:54;;;;;;;10.67;10.37;;;10.90;99.90;;;;;;5006609;28;20223;-83
2023/04/01 09:15:59;;;;;;;10.70;10.40;;;11.00;99.90;;;;;;5006040;28;20240;-85
2023/04/01 09:19:04;;;;;;;10.80;10.50;;;11.00;99.90;;;;;;5007236;28;20240;-83
2023/04/01 09:22:00;;;;;;;10.63;10.33;;;11.00;99.90;;;;;;5003427;28;20296;-84
2023/04/01 09:25:14;;;;;;;10.47;10.17;;;11.00;99.90;;;;;;5002663;28;20229;-82
2023/04/01 09:27:51;;;;;;;10.63;10.33;;;10.90;99.90;;;;;;4988887;28;20230;-82
2023/04/01 09:30:40;;;;;;;10.47;10.17;;;10.90;99.90;;;;;;4989010;28;20231;-83
2023/04/01 09:33:59;;;;;;;10.80;10.50;;;10.80;99.90;;;;;;4992060;28;20265;-83
2023/04/01 09:36:47;;;;;;;10.20;9.90;;;10.70;99.90;;;;;;4991436;28;20251;-83
2023/04/01 09:39:51;;;;;;;10.33;10.03;;;10.70;99.90;;;;;;4990677;28;20243;-83
2023/04/01 09:42:58;;;;;;;10.43;10.13;;;10.70;99.90;;;;;;4991069;28;20249;-85
2023/04/01 09:45:42;;;;;;;10.27;9.97;;;10.70;99.90;;;;;;4989444;28;20339;-83
2023/04/01 09:48:49;;;;;;;10.53;10.23;;;10.80;99.90;;;;;;4989345;28;20253;-82
2023/04/01 09:51:43;;;;;;;10.83;10.53;;;10.70;99.90;;;;;;4987081;28;20234;-81
2023/04/01 09:54:32;;;;;;;10.70;10.40;;;10.60;99.90;;;;;;4992287;28;20236;-83
2023/04/01 09:58:03;;;;;;;10.53;10.23;;;10.60;99.90;;;;;;4990485;28;20817;-86
2023/04/01 10:01:27;;;;;;;10.50;10.20;;;10.50;99.90;;;;;;4996092;28;20287;-83
2023/04/01 10:04:56;;;;;;;10.30;10.00;;;10.30;99.90;;;;;;5013219;28;20241;-83
2023/04/01 10:08:12;;;;;;;10.40;10.10;;;10.20;99.90;;;;;;5008101;28;20291;-84
2023/04/01 10:11:23;;;;;;;10.80;10.50;;;10.00;99.90;;;;;;4956929;28;20312;-84
2023/04/01 10:14:28;;;;;;;10.73;10.43;;;9.90;99.90;;;;;;5008756;28;20224;-83
2023/04/01 10:17:34;;;;;;;10.90;10.60;;;9.90;99.90;;;;;;4988272;28;20228;-83
2023/04/01 10:20:39;;;;;;;10.80;10.50;;;9.80;99.90;;;;;;5014727;28;20304;-83
2023/04/01 10:24:17;;;;;;;10.70;10.40;;;9.70;99.90;;;;;;5011018;28;20280;-84
2023/04/01 10:27:23;;;;;;;10.40;10.10;;;9.80;99.90;;;;;;4973474;28;20350;-85
2023/04/01 10:30:53;;;;;;;10.67;10.37;;;9.80;99.90;;;;;;4950239;29;20230;-84
2023/04/01 10:34:05;;;;;;;10.73;10.43;;;9.80;99.90;;;;;;4913797;29;20235;-84
2023/04/01 10:37:01;;;;;;;10.90;10.60;;;9.70;99.90;;;;;;5009821;28;20339;-84
2023/04/01 10:40:35;;;;;;;11.37;10.97;;;9.60;99.90;;;;;;4975891;28;20293;-84
2023/04/01 10:43:47;;;;;;;10.97;10.67;;;9.50;99.90;;;;;;4985186;28;20323;-84
2023/04/01 10:46:42;;;;;;;10.90;10.60;;;9.40;99.90;;;;;;4983793;28;20264;-83
2023/04/01 10:49:48;;;;;;;10.80;10.50;;;9.40;99.90;;;;;;5008545;28;20237;-83
2023/04/01 10:53:18;;;;;;;10.53;10.23;;;9.40;99.90;;;;;;5006826;28;20245;-83
2023/04/01 10:56:42;;;;;;;11.00;10.70;;;9.50;99.90;;;;;;4936233;29;20242;-83
2023/04/01 11:00:02;;;;;;;10.70;10.40;;;9.40;99.90;;;;;;4986975;28;20264;-84
2023/04/01 11:03:25;;;;;;;10.60;10.30;;;9.40;99.90;;;;;;4995345;28;20243;-84
2023/04/01 11:07:01;;;;;;;10.50;10.20;;;9.40;99.90;;;;;;5019043;28;20217;-83
2023/04/01 11:10:28;;;;;;;10.57;10.27;;;9.40;99.90;;;;;;4988203;28;20225;-82
2023/04/01 11:13:52;;;;;;;10.50;10.20;;;9.50;99.90;;;;;;5020162;28;20252;-84
2023/04/01 11:16:55;;;;;;;10.90;10.60;;;9.50;99.90;;;;;;4977979;28;20257;-81
2023/04/01 11:20:06;;;;;;;10.80;10.50;;;9.50;99.90;;;;;;5019393;28;20284;-82
2023/04/01 11:23:05;;;;;;;10.70;10.40;;;9.50;99.90;;;;;;5020088;28;20213;-83
2023/04/01 11:26:05;;;;;;;11.17;10.83;;;9.50;99.90;;;;;;4999962;28;20241;-80
2023/04/01 11:29:02;;;;;;;10.80;10.50;;;9.40;99.90;;;;;;5000497;28;20206;-82
2023/04/01 11:31:57;;;;;;;10.70;10.40;;;9.40;99.90;;;;;;4999354;28;20218;-83
2023/04/01 11:34:56;;;;;;;10.70;10.40;;;9.40;99.90;;;;;;5000930;28;20222;-84
2023/04/01 11:37:40;;;;;;;10.83;10.53;;;9.40;99.90;;;;;;4999705;28;20257;-83
2023/04/01 11:40:23;;;;;;;11.00;10.70;;;9.40;99.90;;;;;;4996861;28;20248;-83
2023/04/01 11:42:58;;;;;;;10.80;10.50;;;9.30;99.90;;;;;;4996314;28;20218;-83
2023/04/01 11:45:37;;;;;;;10.90;10.60;;;9.30;99.90;;;;;;4994480;28;20248;-84
2023/04/01 11:48:39;;;;;;;10.93;10.63;;;9.30;99.90;;;;;;5011254;28;20299;-84
2023/04/01 11:51:46;;;;;;;10.60;10.30;;;9.40;99.90;;;;;;5008984;28;20225;-83
2023/04/01 11:54:34;;;;;;;10.60;10.30;;;9.40;99.90;;;;;;5013970;28;20253;-84
2023/04/01 11:57:23;;;;;;;10.57;10.27;;;9.40;99.90;;;;;;5007548;28;20229;-83
2023/04/01 12:00:09;;;;;;;10.80;10.50;;;9.40;99.90;;;;;;5010236;28;20232;-84
2023/04/01 12:02:54;;;;;;;10.40;10.10;;;9.30;99.90;;;;;;5008539;28;20228;-82
2023/04/01 12:05:41;;;;;;;10.47;10.17;;;9.40;99.90;;;;;;5007558;28;20315;-82
2023/04/01 12:08:22;;;;;;;10.00;9.70;;;9.40;99.90;;;;;;5008327;28;20220;-83
2023/04/01 12:10:58;;;;;;;10.80;10.50;;;9.50;99.90;;;;;;5008512;28;20296;-83
2023/04/01 12:16:48;;;;;;;10.60;10.30;;;9.70;99.90;;;;;;5011540;28;20252;-82
2023/04/01 12:19:27;;;;;;;10.60;10.30;;;9.70;99.90;;;;;;5006958;28;20244;-82
2023/04/01 12:22:14;;;;;;;10.60;10.30;;;9.70;99.90;;;;;;5010713;28;20248;-82
2023/04/01 12:24:51;;;;;;;10.90;10.60;;;9.70;99.90;;;;;;5014758;28;20248;-82
2023/04/01 12:27:40;;;;;;;10.70;10.40;;;9.80;99.90;;;;;;5018597;28;20253;-82
2023/04/01 12:30:36;;;;;;;10.93;10.63;;;9.80;99.90;;;;;;5010276;28;20248;-81
2023/04/01 12:33:43;;;;;;;10.60;10.30;;;9.80;99.90;;;;;;5010362;28;20233;-81
2023/04/01 12:36:44;;;;;;;10.80;10.50;;;9.70;99.90;;;;;;5000183;28;20236;-82
2023/04/01 12:39:50;;;;;;;10.80;10.50;;;9.60;99.90;;;;;;5004693;28;20233;-82
2023/04/01 12:42:36;;;;;;;10.80;10.50;;;9.60;99.90;;;;;;5010329;28;20237;-81
2023/04/01 12:45:33;;;;;;;10.63;10.33;;;9.60;99.90;;;;;;5008640;28;20327;-81
2023/04/01 12:48:48;;;;;;;10.70;10.40;;;9.70;99.90;;;;;;5007542;28;20284;-81
2023/04/01 12:51:43;;;;;;;10.67;10.37;;;9.70;99.90;;;;;;4987237;28;20316;-80
2023/04/01 12:55:06;;;;;;;11.03;10.73;;;9.80;99.90;;;;;;5011402;28;20326;-82
2023/04/01 12:58:08;;;;;;;10.50;10.20;;;9.80;99.90;;;;;;5005380;28;20242;-80
2023/04/01 13:00:58;;;;;;;10.60;10.30;;;9.90;99.90;;;;;;5009172;28;20228;-80
2023/04/01 13:03:58;;;;;;;10.60;10.30;;;10.00;99.90;;;;;;5009951;28;20217;-80
2023/04/01 13:06:51;;;;;;;10.60;10.30;;;10.10;99.90;;;;;;5008399;28;20233;-80
2023/04/01 13:09:43;;;;;;;10.47;10.17;;;10.20;99.90;;;;;;5005162;28;20224;-80
2023/04/01 13:12:45;;;;;;;10.47;10.17;;;10.20;99.90;;;;;;5009946;28;20221;-81
2023/04/01 13:15:28;;;;;;;10.40;10.10;;;10.20;99.90;;;;;;5010233;28;20236;-80
2023/04/01 13:18:11;;;;;;;10.57;10.27;;;10.30;99.90;;;;;;5010521;28;20288;-79
2023/04/01 13:20:51;;;;;;;10.20;9.90;;;10.30;99.90;;;;;;5009593;28;20267;-79
2023/04/01 13:23:35;;;;;;;10.17;9.87;;;10.30;99.90;;;;;;5012109;28;20241;-79
2023/04/01 13:26:15;;;;;;;10.50;10.20;;;10.30;99.90;;;;;;5011016;28;20308;-80
2023/04/01 13:28:49;;;;;;;10.57;10.27;;;10.30;99.90;;;;;;5009980;28;20232;-79
2023/04/01 13:31:35;;;;;;;10.50;10.20;;;10.30;99.90;;;;;;5009236;28;20260;-80
2023/04/01 13:34:19;;;;;;;10.60;10.30;;;10.40;99.90;;;;;;5009146;28;20233;-79
2023/04/01 13:37:01;;;;;;;10.30;10.00;;;10.40;99.90;;;;;;5000704;28;20243;-79
2023/04/01 13:39:49;;;;;;;10.33;10.03;;;10.50;99.90;;;;;;5008396;28;20232;-79
2023/04/01 13:42:26;;;;;;;10.50;10.20;;;10.50;99.90;;;;;;5005493;28;20236;-79
2023/04/01 13:44:58;;;;;;;10.33;10.03;;;10.40;99.90;;;;;;5009295;28;20263;-80
2023/04/01 13:48:05;;;;;;;10.10;9.80;;;10.40;99.90;;;;;;5012038;28;20229;-80
2023/04/01 13:51:21;;;;;;;10.27;9.97;;;10.30;99.90;;;;;;5007187;28;20300;-82
2023/04/01 13:54:51;;;;;;;10.40;10.10;;;10.30;99.90;;;;;;5009389;28;20268;-81
2023/04/01 13:57:52;;;;;;;10.53;10.23;;;10.40;99.90;;;;;;5010485;28;20235;-81
2023/04/01 14:00:42;;;;;;;10.47;10.17;;;10.40;99.90;;;;;;4990754;28;20285;-81
2023/04/01 14:03:39;;;;;;;10.60;10.30;;;10.40;99.90;;;;;;4991045;28;20305;-80
2023/04/01 14:06:33;;;;;;;10.50;10.20;;;10.50;99.90;;;;;;4990756;28;20714;-80
2023/04/01 14:09:37;;;;;;;10.50;10.20;;;10.60;99.90;;;;;;4988623;28;20292;-80